POGODA: Poland

Lotnisko: Katowice

METAR KOD: EPKT


METAR: EPKT 260400Z 14004KT 3000 BR BKN017 03/02 Q1027


BLOK
Pogoda METAR
260400Z
Dzien: 26, Godzina: 04:00 UTC.
14004KT
Wiatr z kierunku 140, o predkosci 7 km/h
3000
Widzialnosc pozioma 3000 m.
BR
zamglenia
BKN017
5/8 - 7/8 pokrycia nieba, chmurami o podstawie: 510 metrow
03/02
Temperatura: powietrze 3°C, punkt rosy 2°C . Wilgotnosc wzgledna 67 %
Q1027
Cisnienie: 1027 hPa

Pogoda na innym lotnisku

Pogoda Gdansk-Rebiechowo WEATHER Poland  
Pogoda Katowice WEATHER Poland  
Pogoda Krakow WEATHER Poland  
Pogoda Poznan WEATHER Poland  
Pogoda Rzeszow-Jasionka WEATHER Poland  
Pogoda Szczecin WEATHER Poland  
Pogoda Warszawa-Okecie WEATHER Poland  
Pogoda Wroclaw Ii WEATHER Poland  

Pogoda w inny kraju

Strona startowa

(C) by GREGOR 2007
Ogłoszenia Towarzyskie